Time;durP1;ratioP1;P1;durP2;ratioP2;P2;SDS_P1;SDS_P2;PMS_P1;PMS_P2;Temp;Humidity;BMP_temperature;BMP_pressure;BME280_temperature;BME280_humidity;BME280_pressure;Samples;Min_cycle;Max_cycle;Signal;HPM_P1;HPM_P2
2022/12/12 06:23:19;;;;;;;;;35.75;29.25;;;;;2.16;99.34;100873.31;4971664;28;50075;-67
2022/12/12 06:25:49;;;;;;;;;37.25;30.25;;;;;2.15;99.07;100876.72;4942620;28;49996;-62
2022/12/12 06:28:14;;;;;;;;;37.00;28.75;;;;;2.19;99.20;100880.38;4948894;28;49854;-61
2022/12/12 06:30:39;;;;;;;;;35.75;32.75;;;;;2.17;98.57;100866.44;4952713;28;50888;-61
2022/12/12 06:33:04;;;;;;;;;37.50;31.50;;;;;2.07;99.21;100838.25;4952820;28;49997;-60
2022/12/12 06:35:30;;;;;;;;;35.75;32.75;;;;;2.20;99.00;100870.09;4952345;28;59948;-59
2022/12/12 06:37:55;;;;;;;;;40.25;31.25;;;;;2.26;99.00;100880.81;4952801;28;51164;-62
2022/12/12 06:40:21;;;;;;;;;31.25;27.00;;;;;2.22;98.98;100870.16;4952435;28;50492;-66
2022/12/12 06:42:46;;;;;;;;;41.50;28.75;;;;;2.26;98.27;100870.44;4952908;28;49829;-67
2022/12/12 06:45:11;;;;;;;;;35.75;29.75;;;;;2.15;98.61;100855.13;4953075;28;49781;-67
2022/12/12 06:47:37;;;;;;;;;35.25;28.50;;;;;2.13;98.07;100849.84;4953110;28;49711;-68
2022/12/12 06:50:02;;;;;;;;;29.50;27.75;;;;;2.30;98.52;100874.97;4952659;28;50392;-68
2022/12/12 06:52:30;;;;;;;;;28.50;27.50;;;;;2.30;98.16;100884.44;4952673;28;49742;-68
2022/12/12 06:54:55;;;;;;;;;32.50;28.50;;;;;2.12;97.72;100850.63;4951015;28;49682;-66
2022/12/12 06:57:20;;;;;;;;;44.25;35.75;;;;;2.28;97.33;100883.47;4958151;28;49602;-68
2022/12/12 06:59:49;;;;;;;;;37.50;34.00;;;;;2.23;96.91;100870.28;4953022;28;67358;-67
2022/12/12 07:02:15;;;;;;;;;44.25;33.50;;;;;2.13;96.74;100867.97;4956624;28;49629;-60
2022/12/12 07:04:40;;;;;;;;;43.75;37.75;;;;;2.19;96.25;100886.44;4955135;28;53781;-64
2022/12/12 07:07:05;;;;;;;;;38.00;29.25;;;;;2.18;97.29;100876.88;4955314;28;49822;-57
2022/12/12 07:09:30;;;;;;;;;36.00;31.50;;;;;2.18;96.96;100869.13;4951794;28;51901;-64
2022/12/12 07:11:56;;;;;;;;;37.50;34.50;;;;;2.19;97.90;100880.38;4952034;28;66703;-63
2022/12/12 07:14:21;;;;;;;;;35.25;33.50;;;;;2.20;97.19;100877.84;4951886;28;59297;-61
2022/12/12 07:16:46;;;;;;;;;40.75;28.50;;;;;2.09;96.16;100876.38;4957840;28;49847;-64
2022/12/12 07:19:12;;;;;;;;;33.25;31.00;;;;;2.08;96.98;100871.09;4951520;28;68086;-63
2022/12/12 07:21:37;;;;;;;;;27.00;24.75;;;;;1.90;96.71;100876.13;4952990;28;49898;-60
2022/12/12 07:24:03;;;;;;;;;34.50;33.75;;;;;1.81;97.47;100881.66;4949960;28;49801;-60
2022/12/12 07:26:28;;;;;;;;;37.25;31.25;;;;;1.80;98.34;100892.84;4952349;28;49784;-60
2022/12/12 07:28:53;;;;;;;;;41.50;33.25;;;;;1.62;97.72;100866.78;4951858;28;50698;-61
2022/12/12 07:31:24;;;;;;;;;34.75;34.00;;;;;1.73;98.93;100894.16;4952583;28;49679;-63
2022/12/12 07:33:50;;;;;;;;;42.00;37.50;;;;;1.78;99.04;100906.50;4946213;28;49879;-66
2022/12/12 07:36:16;;;;;;;;;24.00;21.50;;;;;1.77;98.68;100902.13;4954099;28;50005;-68
2022/12/12 07:38:42;;;;;;;;;43.25;30.00;;;;;1.81;99.13;100910.16;4945154;28;50275;-63
2022/12/12 07:41:14;;;;;;;;;29.50;27.00;;;;;1.83;98.97;100915.41;4950420;28;49789;-65
2022/12/12 07:43:41;;;;;;;;;34.50;32.75;;;;;1.87;98.56;100912.22;4946319;28;49717;-61
2022/12/12 07:46:08;;;;;;;;;35.50;32.25;;;;;1.89;98.84;100913.19;4952209;28;49698;-61
2022/12/12 07:48:34;;;;;;;;;35.75;28.50;;;;;1.85;99.29;100890.53;4940660;28;49868;-65
2022/12/12 07:51:00;;;;;;;;;33.25;25.00;;;;;1.92;97.83;100909.06;4945745;28;49676;-64
2022/12/12 07:53:26;;;;;;;;;44.00;40.00;;;;;1.91;99.53;100906.38;4951670;28;50072;-64
2022/12/12 07:55:51;;;;;;;;;35.00;31.75;;;;;1.86;97.73;100907.84;4962457;28;49689;-62
2022/12/12 07:58:16;;;;;;;;;38.25;32.25;;;;;1.73;98.32;100907.09;4957374;28;56292;-62
2022/12/12 08:00:42;;;;;;;;;39.00;31.75;;;;;1.71;98.90;100910.41;4951123;28;66436;-62
2022/12/12 08:03:07;;;;;;;;;35.50;32.00;;;;;1.66;98.69;100899.81;4951340;28;60006;-62
2022/12/12 08:05:32;;;;;;;;;36.50;32.75;;;;;1.83;99.08;100913.72;4950910;28;57718;-62
2022/12/12 08:07:58;;;;;;;;;40.25;36.25;;;;;1.91;99.45;100916.75;4951509;28;49870;-62
2022/12/12 08:10:23;;;;;;;;;40.75;36.00;;;;;1.98;98.38;100919.78;4950687;28;59805;-62
2022/12/12 08:12:48;;;;;;;;;43.25;33.50;;;;;1.88;98.26;100921.75;4950935;28;50715;-62
2022/12/12 08:15:15;;;;;;;;;40.75;40.00;;;;;1.96;99.10;100931.75;4951496;28;55168;-61
2022/12/12 08:17:41;;;;;;;;;50.75;39.25;;;;;1.25;98.37;100805.94;4951441;28;50546;-61
2022/12/12 08:20:07;;;;;;;;;43.25;37.25;;;;;1.98;98.97;100942.19;4951535;28;49765;-62
2022/12/12 08:22:32;;;;;;;;;42.00;34.25;;;;;1.79;98.46;100890.16;4951425;28;49558;-61
2022/12/12 08:24:57;;;;;;;;;36.00;31.50;;;;;1.96;98.25;100920.50;4950576;28;49787;-61
2022/12/12 08:27:23;;;;;;;;;45.25;41.00;;;;;2.07;98.53;100922.00;4950654;28;60671;-63
2022/12/12 08:29:51;;;;;;;;;49.00;42.50;;;;;1.98;97.43;100927.53;4951429;28;49802;-63
2022/12/12 08:32:16;;;;;;;;;45.25;37.00;;;;;1.93;97.44;100926.41;4951193;28;49838;-64
2022/12/12 08:34:41;;;;;;;;;36.75;32.50;;;;;2.06;97.77;100929.69;4952271;28;51675;-64
2022/12/12 08:37:07;;;;;;;;;37.50;30.75;;;;;2.11;96.81;100931.72;4953823;28;62649;-63
2022/12/12 08:39:32;;;;;;;;;40.50;34.25;;;;;2.14;96.20;100936.22;4954165;28;49549;-64
2022/12/12 08:41:57;;;;;;;;;46.75;38.00;;;;;2.11;96.58;100936.91;4954383;28;52570;-63
2022/12/12 08:44:23;;;;;;;;;39.75;32.25;;;;;2.19;95.77;100948.59;4954083;28;55217;-64
2022/12/12 08:46:49;;;;;;;;;31.00;28.00;;;;;2.26;95.69;100944.66;4954740;28;50693;-63
2022/12/12 08:49:14;;;;;;;;;45.25;36.25;;;;;2.34;94.38;100947.69;4954484;28;49752;-62
2022/12/12 08:51:40;;;;;;;;;41.00;35.75;;;;;2.39;94.26;100954.91;4954770;28;49901;-63
2022/12/12 08:54:06;;;;;;;;;50.25;38.25;;;;;2.30;93.47;100952.69;4954338;28;49742;-62
2022/12/12 08:56:31;;;;;;;;;51.50;39.50;;;;;2.37;94.89;100968.59;4954602;28;50649;-63
2022/12/12 08:58:57;;;;;;;;;36.00;32.50;;;;;2.44;93.90;100979.41;4954374;28;49812;-61
2022/12/12 09:01:24;;;;;;;;;42.00;36.25;;;;;2.43;92.33;100962.06;4954293;28;49673;-61
2022/12/12 09:03:51;;;;;;;;;60.25;45.75;;;;;2.11;92.25;100899.75;4954342;28;49906;-64
2022/12/12 09:06:18;;;;;;;;;44.00;36.25;;;;;2.39;92.77;100962.69;4953958;28;50991;-62
2022/12/12 09:08:44;;;;;;;;;47.50;40.75;;;;;2.24;92.94;100949.78;4953816;28;49656;-61
2022/12/12 09:11:10;;;;;;;;;58.25;42.50;;;;;2.35;92.71;100957.25;4954202;28;49760;-62
2022/12/12 09:13:36;;;;;;;;;40.75;36.00;;;;;2.54;92.17;100970.44;4954310;28;49629;-61
2022/12/12 09:16:02;;;;;;;;;48.50;42.00;;;;;2.47;91.41;100969.19;4953693;28;50477;-62
2022/12/12 09:18:28;;;;;;;;;48.50;39.50;;;;;2.30;91.52;100934.56;4953903;28;49655;-61
2022/12/12 09:20:55;;;;;;;;;49.50;42.00;;;;;2.48;92.25;100958.03;4954411;28;49849;-61
2022/12/12 09:23:22;;;;;;;;;55.25;43.50;;;;;2.47;91.81;100939.78;4953992;28;49743;-61
2022/12/12 09:25:47;;;;;;;;;54.00;43.25;;;;;2.62;90.80;100968.28;4953779;28;50542;-62
2022/12/12 09:28:15;;;;;;;;;53.25;42.25;;;;;2.57;90.83;100962.81;4954018;28;49888;-64
2022/12/12 09:30:42;;;;;;;;;51.00;45.00;;;;;2.55;91.31;100956.66;4954021;28;49952;-65
2022/12/12 09:33:07;;;;;;;;;43.25;40.50;;;;;2.43;90.78;100918.00;4953807;28;49692;-64
2022/12/12 09:35:33;;;;;;;;;50.00;40.75;;;;;2.39;89.56;100920.34;4953427;28;50545;-65
2022/12/12 09:37:58;;;;;;;;;52.00;44.50;;;;;2.38;89.89;100922.03;4953413;28;53646;-66
2022/12/12 09:40:58;;;;;;;;;49.50;45.50;;;;;2.42;88.31;100944.75;4953399;28;49737;-65
2022/12/12 09:43:27;;;;;;;;;43.75;35.75;;;;;2.38;89.42;100929.81;4952470;28;49807;-63
2022/12/12 09:45:54;;;;;;;;;49.50;41.75;;;;;2.43;88.75;100949.13;4953137;28;50327;-62
2022/12/12 09:48:41;;;;;;;;;47.00;42.67;;;;;2.37;89.29;100953.94;4954507;28;49763;-66
2022/12/12 09:51:07;;;;;;;;;52.50;41.75;;;;;2.37;89.16;100960.81;4947514;28;50057;-66
2022/12/12 09:53:33;;;;;;;;;54.67;43.33;;;;;2.40;89.41;100964.47;4955862;28;49924;-64
2022/12/12 09:56:20;;;;;;;;;44.25;35.00;;;;;2.42;88.37;100943.84;4949871;28;49884;-64
2022/12/12 09:59:15;;;;;;;;;52.50;45.25;;;;;2.42;88.36;100943.84;4951931;28;49997;-63
2022/12/12 10:02:08;;;;;;;;;49.50;43.25;;;;;2.42;87.66;100949.91;4930949;28;49810;-63
2022/12/12 10:04:45;;;;;;;;;47.00;41.25;;;;;2.28;87.26;100956.91;4952904;28;49988;-63
2022/12/12 10:07:33;;;;;;;;;50.75;42.50;;;;;2.22;87.44;100951.38;4946433;28;51822;-64
2022/12/12 10:10:11;;;;;;;;;56.33;45.67;;;;;2.32;88.11;100950.22;4953682;28;49774;-64
2022/12/12 10:12:38;;;;;;;;;59.00;45.67;;;;;2.32;87.40;100933.75;4953448;28;49815;-63
2022/12/12 10:15:30;;;;;;;;;51.25;42.25;;;;;2.45;88.41;100938.81;4958263;28;49788;-65
2022/12/12 10:17:59;;;;;;;;;50.33;45.33;;;;;2.35;87.75;100923.56;4945608;28;49965;-62
2022/12/12 10:20:29;;;;;;;;;45.50;42.50;;;;;2.24;86.36;100897.06;4953216;28;49806;-63
2022/12/12 10:23:13;;;;;;;;;53.00;42.00;;;;;2.39;87.01;100926.41;4953532;28;49901;-65
2022/12/12 10:25:58;;;;;;;;;42.50;41.75;;;;;2.39;85.62;100921.22;4953170;28;49953;-63
2022/12/12 10:28:26;;;;;;;;;50.75;42.50;;;;;2.22;86.06;100921.97;4947020;28;50007;-63
2022/12/12 10:31:19;;;;;;;;;46.25;39.50;;;;;2.13;87.09;100914.59;4953096;28;49735;-63
2022/12/12 10:33:56;;;;;;;;;55.00;40.75;;;;;1.71;87.42;100861.25;4950320;28;49784;-63
2022/12/12 10:36:46;;;;;;;;;55.67;45.33;;;;;2.12;87.03;100935.19;4953324;28;49829;-63
2022/12/12 10:39:24;;;;;;;;;52.50;43.50;;;;;2.00;87.23;100925.03;4952607;28;50477;-63
2022/12/12 10:41:58;;;;;;;;;41.25;37.50;;;;;1.99;87.29;100931.03;4951450;28;49699;-63
2022/12/12 10:45:00;;;;;;;;;52.00;44.00;;;;;2.04;87.90;100936.50;4952934;28;49780;-63
2022/12/12 10:47:25;;;;;;;;;44.67;34.00;;;;;2.06;87.48;100940.94;4952843;28;49652;-63
2022/12/12 10:50:13;;;;;;;;;46.25;39.25;;;;;1.86;87.86;100898.38;4952606;28;50013;-63
2022/12/12 10:52:38;;;;;;;;;40.50;34.00;;;;;2.05;88.20;100913.28;4952532;28;49767;-62
2022/12/12 10:55:16;;;;;;;;;41.25;39.50;;;;;2.17;88.46;100929.50;4952388;28;49585;-63
2022/12/12 10:57:41;;;;;;;;;49.25;43.00;;;;;2.25;87.62;100924.75;4952205;28;49762;-64
2022/12/12 11:00:25;;;;;;;;;46.25;32.75;;;;;2.18;87.60;100912.25;4953020;28;51238;-63
2022/12/12 11:02:55;;;;;;;;;47.50;43.50;;;;;2.24;87.62;100905.72;4952278;28;49742;-64
2022/12/12 11:05:25;;;;;;;;;47.00;38.33;;;;;2.27;86.78;100895.53;4952568;28;49811;-64
2022/12/12 11:08:01;;;;;;;;;50.25;43.50;;;;;2.44;87.10;100895.59;4953136;28;49937;-63
2022/12/12 11:10:33;;;;;;;;;50.00;39.50;;;;;2.43;87.37;100879.16;4952422;28;50328;-65
2022/12/12 11:13:14;;;;;;;;;51.25;42.50;;;;;2.41;85.62;100854.84;4952281;28;50155;-63
2022/12/12 11:16:00;;;;;;;;;48.25;41.75;;;;;2.55;84.90;100877.22;4952464;28;49844;-63
2022/12/12 11:18:27;;;;;;;;;49.25;42.00;;;;;2.52;83.54;100864.09;4946332;28;49740;-63
2022/12/12 11:21:09;;;;;;;;;45.00;38.00;;;;;2.53;84.51;100859.81;4951860;28;50352;-63
2022/12/12 11:23:39;;;;;;;;;44.75;36.50;;;;;2.63;84.84;100853.44;4951661;28;49870;-62
2022/12/12 11:26:13;;;;;;;;;43.25;41.75;;;;;2.73;85.25;100848.81;4952131;28;49660;-63
2022/12/12 11:28:41;;;;;;;;;43.75;40.00;;;;;2.47;83.33;100831.84;4952368;28;49740;-63
2022/12/12 11:31:15;;;;;;;;;48.00;45.00;;;;;2.26;84.61;100836.75;4952027;28;50590;-63
2022/12/12 11:33:47;;;;;;;;;56.33;43.33;;;;;2.25;86.42;100832.41;4952041;28;49830;-64
2022/12/12 11:36:20;;;;;;;;;46.50;41.50;;;;;2.22;85.85;100808.94;4952117;28;49778;-63
2022/12/12 11:38:53;;;;;;;;;55.33;44.33;;;;;2.25;86.76;100801.31;4951756;28;49763;-63
2022/12/12 11:41:18;;;;;;;;;41.25;37.00;;;;;2.20;85.66;100807.03;4951691;28;49833;-63
2022/12/12 11:43:46;;;;;;;;;61.00;42.33;;;;;2.28;84.55;100821.31;4951859;28;49696;-63
2022/12/12 11:46:18;;;;;;;;;55.50;40.75;;;;;2.17;85.33;100805.19;4952119;28;49972;-68
2022/12/12 11:48:56;;;;;;;;;45.00;40.00;;;;;2.13;84.16;100790.28;4959669;28;49768;-65
2022/12/12 11:51:32;;;;;;;;;49.33;41.33;;;;;2.20;84.84;100801.84;4968399;28;50310;-66
2022/12/12 11:53:57;;;;;;;;;54.50;45.75;;;;;2.24;84.39;100809.91;4965863;28;49624;-65
2022/12/12 11:56:43;;;;;;;;;61.00;42.00;;;;;2.28;83.96;100814.41;4966520;28;49486;-64
2022/12/12 11:59:39;;;;;;;;;55.75;43.25;;;;;2.05;83.11;100781.22;4962384;28;49272;-65
2022/12/12 12:02:30;;;;;;;;;56.00;47.00;;;;;2.25;83.76;100821.16;4958221;28;49576;-65
2022/12/12 12:05:32;;;;;;;;;56.50;46.00;;;;;2.14;84.85;100822.25;4961905;28;49707;-66
2022/12/12 12:08:22;;;;;;;;;60.25;44.75;;;;;2.07;84.00;100800.31;4966512;28;49931;-72
2022/12/12 12:11:01;;;;;;;;;48.50;42.00;;;;;2.18;84.12;100817.31;4963494;28;49819;-67
2022/12/12 12:13:58;;;;;;;;;56.67;45.00;;;;;2.23;85.16;100818.47;4968022;28;51090;-65
2022/12/12 12:16:45;;;;;;;;;57.50;43.50;;;;;2.23;84.89;100809.81;4957558;28;49849;-64
2022/12/12 12:19:17;;;;;;;;;41.50;40.25;;;;;2.25;86.42;100808.19;4961166;28;49915;-63
2022/12/12 12:21:46;;;;;;;;;42.00;41.75;;;;;2.31;85.10;100803.31;4957834;28;49731;-64
2022/12/12 12:24:31;;;;;;;;;51.50;42.25;;;;;2.43;84.85;100809.19;4956658;28;49387;-63
2022/12/12 12:27:24;;;;;;;;;49.25;42.25;;;;;2.43;84.45;100801.41;4958259;28;49758;-67
2022/12/12 12:30:08;;;;;;;;;44.50;36.00;;;;;2.39;84.46;100801.16;4981427;28;49764;-66
2022/12/12 12:32:39;;;;;;;;;47.50;42.00;;;;;2.45;83.98;100798.91;4957579;28;49941;-65
2022/12/12 12:35:54;;;;;;;;;47.50;39.75;;;;;2.37;83.47;100777.75;4955842;28;49712;-66
2022/12/12 12:38:37;;;;;;;;;46.50;39.25;;;;;2.39;82.78;100778.72;4915448;28;49727;-66
2022/12/12 12:41:27;;;;;;;;;44.25;38.00;;;;;2.53;83.41;100784.66;4906743;28;50196;-66
2022/12/12 12:44:08;;;;;;;;;45.25;42.25;;;;;2.62;82.33;100774.78;4954632;28;49841;-65
2022/12/12 12:46:58;;;;;;;;;52.25;42.75;;;;;2.62;82.24;100776.50;4969061;28;49821;-67
2022/12/12 12:49:46;;;;;;;;;40.00;36.50;;;;;2.48;81.47;100734.28;4967761;28;49202;-68
2022/12/12 12:52:17;;;;;;;;;52.75;45.00;;;;;2.53;82.61;100740.63;4960149;28;49676;-67
2022/12/12 12:54:47;;;;;;;;;40.50;34.00;;;;;2.69;80.54;100768.19;4969360;28;49636;-67
2022/12/12 12:57:20;;;;;;;;;41.75;36.00;;;;;2.32;81.45;100722.25;4966305;28;49771;-67
2022/12/12 12:59:51;;;;;;;;;47.75;41.75;;;;;2.15;80.77;100703.22;4954894;28;50052;-68
2022/12/12 13:02:35;;;;;;;;;48.00;40.75;;;;;2.48;80.27;100770.56;4969886;28;49585;-68
2022/12/12 13:05:32;;;;;;;;;44.50;36.00;;;;;2.39;80.17;100755.41;4966707;28;49325;-67
2022/12/12 13:08:03;;;;;;;;;45.25;39.50;;;;;2.52;80.14;100765.63;4967610;28;49558;-68
2022/12/12 13:10:30;;;;;;;;;41.75;37.50;;;;;2.53;79.12;100762.22;4969116;28;49503;-67
2022/12/12 13:13:20;;;;;;;;;44.00;37.00;;;;;2.55;80.13;100763.19;4969221;28;49716;-68
2022/12/12 13:15:50;;;;;;;;;57.50;43.75;;;;;2.67;80.42;100767.25;4968844;28;49853;-67
2022/12/12 13:18:16;;;;;;;;;45.00;39.50;;;;;2.38;79.54;100713.88;4969225;28;49735;-67
2022/12/12 13:20:57;;;;;;;;;28.75;28.00;;;;;2.67;80.31;100762.94;4962998;28;49696;-67
2022/12/12 13:23:35;;;;;;;;;42.25;40.75;;;;;2.68;79.56;100754.34;4966977;28;49664;-66
2022/12/12 13:26:12;;;;;;;;;50.25;43.00;;;;;2.74;79.76;100756.38;4968376;28;49525;-67
2022/12/12 13:28:45;;;;;;;;;49.00;42.50;;;;;2.28;78.31;100691.78;4968173;28;50551;-66
2022/12/12 13:31:43;;;;;;;;;49.75;40.00;;;;;2.65;78.08;100755.91;4962299;28;49537;-66
2022/12/12 13:34:22;;;;;;;;;50.75;41.25;;;;;2.34;79.72;100718.03;4963297;28;49735;-68
2022/12/12 13:36:50;;;;;;;;;55.50;47.25;;;;;2.60;79.86;100734.91;4970062;28;49675;-67
2022/12/12 13:39:29;;;;;;;;;43.25;38.75;;;;;2.37;78.96;100694.84;4968568;28;50202;-68
2022/12/12 13:41:56;;;;;;;;;46.50;39.75;;;;;2.39;80.73;100687.16;4968676;28;49316;-66
2022/12/12 13:44:32;;;;;;;;;41.25;37.25;;;;;2.54;79.88;100712.19;4970112;28;49442;-68
2022/12/12 13:46:58;;;;;;;;;50.50;34.50;;;;;2.41;79.32;100704.56;4962922;28;49624;-68
2022/12/12 13:49:31;;;;;;;;;42.25;31.00;;;;;2.26;81.03;100699.47;4957546;28;49934;-68
2022/12/12 13:52:21;;;;;;;;;38.50;35.75;;;;;2.45;80.59;100716.00;4952374;28;49846;-68
2022/12/12 13:54:47;;;;;;;;;39.75;35.75;;;;;2.38;81.63;100714.78;4951703;28;49988;-70
2022/12/12 13:57:21;;;;;;;;;55.25;43.75;;;;;2.46;80.93;100728.13;4951990;28;50079;-67
2022/12/12 13:59:52;;;;;;;;;65.50;49.00;;;;;2.46;81.99;100721.25;4951543;28;51401;-68
2022/12/12 14:02:24;;;;;;;;;45.75;40.50;;;;;2.53;81.69;100723.38;4950346;28;50075;-68
2022/12/12 14:05:11;;;;;;;;;40.00;37.00;;;;;2.50;81.82;100706.75;4951615;28;49821;-67
2022/12/12 14:07:38;;;;;;;;;49.75;44.00;;;;;2.54;81.42;100713.88;4966499;28;49814;-66
2022/12/12 14:10:38;;;;;;;;;51.25;42.25;;;;;2.52;80.63;100719.00;4951450;28;49830;-68
2022/12/12 14:13:18;;;;;;;;;45.25;37.75;;;;;2.47;81.04;100717.84;4931350;28;49926;-66
2022/12/12 14:15:45;;;;;;;;;42.50;36.50;;;;;2.56;81.00;100730.41;4953406;28;49867;-68
2022/12/12 14:18:22;;;;;;;;;48.75;37.50;;;;;2.30;80.68;100705.69;4953321;28;50022;-66
2022/12/12 14:20:59;;;;;;;;;44.50;36.00;;;;;2.34;81.72;100724.91;4953047;28;49830;-66
2022/12/12 14:23:35;;;;;;;;;59.00;46.33;;;;;2.35;81.42;100722.41;4952809;28;49749;-68
2022/12/12 14:26:11;;;;;;;;;56.67;44.00;;;;;2.40;82.26;100728.69;4953161;28;49842;-65
2022/12/12 14:28:36;;;;;;;;;50.50;41.25;;;;;2.46;82.24;100722.97;4953153;28;50008;-67
2022/12/12 14:31:13;;;;;;;;;52.00;45.00;;;;;2.37;81.99;100704.34;4951215;28;51125;-68
2022/12/12 14:34:00;;;;;;;;;16.25;8.25;;;;;2.47;82.73;100714.38;4951096;28;49834;-69
2022/12/12 14:36:56;;;;;;;;;37.00;34.50;;;;;2.46;82.19;100721.25;4962289;28;49978;-67
2022/12/12 14:39:46;;;;;;;;;49.00;38.75;;;;;2.41;82.15;100722.69;4980736;28;50157;-68
2022/12/12 14:42:26;;;;;;;;;45.50;37.25;;;;;2.32;81.03;100713.56;4964457;28;52278;-68
2022/12/12 14:44:51;;;;;;;;;36.00;29.50;;;;;2.34;80.60;100727.50;4970840;28;49289;-66
2022/12/12 14:47:17;;;;;;;;;32.75;30.00;;;;;2.25;80.56;100718.44;4956668;28;57937;-65
2022/12/12 14:49:42;;;;;;;;;38.25;27.75;;;;;2.24;80.86;100716.66;4953093;28;49621;-65
2022/12/12 14:52:16;;;;;;;;;40.75;33.25;;;;;2.28;80.84;100726.34;4952103;28;51102;-67
2022/12/12 14:54:42;;;;;;;;;48.25;33.50;;;;;2.27;80.61;100723.69;4960142;28;49609;-66
2022/12/12 14:57:07;;;;;;;;;41.25;31.25;;;;;2.23;80.44;100719.16;4970001;28;49329;-67
2022/12/12 14:59:37;;;;;;;;;49.00;43.00;;;;;2.20;80.25;100725.03;4969049;28;49468;-66
2022/12/12 15:02:18;;;;;;;;;35.75;30.50;;;;;2.15;80.78;100723.94;4970096;28;49416;-66
2022/12/12 15:04:48;;;;;;;;;44.50;35.50;;;;;1.81;82.07;100660.78;4968409;28;49784;-65
2022/12/12 15:07:29;;;;;;;;;41.75;36.25;;;;;2.18;82.30;100741.31;4970153;28;49724;-68
2022/12/12 15:09:55;;;;;;;;;36.50;28.25;;;;;2.07;81.88;100726.91;4969864;28;49534;-68
2022/12/12 15:12:30;;;;;;;;;28.25;27.50;;;;;2.01;82.92;100730.94;4969132;28;50025;-68
2022/12/12 15:14:56;;;;;;;;;44.50;34.75;;;;;1.87;81.99;100720.66;4963375;28;49711;-65
2022/12/12 15:17:24;;;;;;;;;38.50;36.25;;;;;1.86;82.98;100718.88;4969846;28;49432;-66
2022/12/12 15:19:54;;;;;;;;;40.75;34.00;;;;;1.86;82.84;100726.63;4969711;28;49352;-69
2022/12/12 15:22:22;;;;;;;;;39.00;31.00;;;;;1.93;82.80;100726.13;4969693;28;49462;-62
2022/12/12 15:24:48;;;;;;;;;39.50;31.75;;;;;1.90;83.61;100719.09;4968795;28;49439;-62
2022/12/12 15:27:22;;;;;;;;;49.25;38.75;;;;;1.88;84.15;100732.78;4967715;28;49615;-63
2022/12/12 15:29:48;;;;;;;;;40.50;32.00;;;;;1.83;84.27;100732.50;4967071;28;49386;-66
2022/12/12 15:32:20;;;;;;;;;37.50;29.50;;;;;1.82;85.33;100747.97;4949007;28;49797;-63
2022/12/12 15:34:58;;;;;;;;;46.00;35.50;;;;;1.82;85.89;100746.25;4954381;28;49779;-62
2022/12/12 15:37:26;;;;;;;;;46.75;40.00;;;;;1.80;85.63;100741.81;4968580;28;49475;-63
2022/12/12 15:40:19;;;;;;;;;42.75;37.50;;;;;1.71;86.35;100744.78;4960524;28;49861;-63
2022/12/12 15:42:50;;;;;;;;;44.75;39.50;;;;;1.53;85.54;100736.88;4950516;28;49721;-62
2022/12/12 15:45:32;;;;;;;;;54.50;43.00;;;;;1.58;85.63;100740.63;4951355;28;49897;-62
2022/12/12 15:47:58;;;;;;;;;42.50;38.25;;;;;1.39;85.53;100727.47;4949944;28;49838;-64
2022/12/12 15:50:28;;;;;;;;;49.75;38.50;;;;;1.39;85.03;100753.31;4966494;28;49842;-62
2022/12/12 15:53:06;;;;;;;;;41.75;26.50;;;;;1.24;86.19;100750.75;4964235;28;49844;-66
2022/12/12 15:55:34;;;;;;;;;37.75;33.00;;;;;1.21;87.75;100755.75;4968277;28;49372;-62
2022/12/12 15:57:59;;;;;;;;;39.25;33.00;;;;;1.09;87.06;100732.66;4958463;28;49737;-69
2022/12/12 16:00:29;;;;;;;;;40.50;33.75;;;;;1.22;88.04;100773.03;4951988;28;49862;-70
2022/12/12 16:03:03;;;;;;;;;46.75;36.75;;;;;1.08;88.25;100738.63;4951578;28;50647;-71
2022/12/12 16:05:31;;;;;;;;;44.75;37.50;;;;;1.17;87.93;100750.31;4952038;28;49979;-72
2022/12/12 16:08:26;;;;;;;;;50.00;43.25;;;;;1.10;88.39;100749.06;4952647;28;49823;-69
2022/12/12 16:10:54;;;;;;;;;36.00;27.25;;;;;0.98;88.15;100749.25;4951235;28;49880;-73
2022/12/12 16:13:23;;;;;;;;;35.00;32.75;;;;;0.95;88.19;100754.22;4950396;28;50620;-72
2022/12/12 16:15:48;;;;;;;;;48.00;39.00;;;;;0.92;88.76;100753.16;4951117;28;49816;-68
2022/12/12 16:18:18;;;;;;;;;45.50;37.50;;;;;0.80;89.44;100750.75;4953886;28;50052;-68
2022/12/12 16:20:47;;;;;;;;;35.25;32.50;;;;;0.56;89.49;100709.72;4950066;28;49900;-65
2022/12/12 16:23:30;;;;;;;;;46.50;36.00;;;;;0.71;89.97;100737.28;4944027;28;50280;-68
2022/12/12 16:25:58;;;;;;;;;40.75;37.50;;;;;0.53;89.77;100708.66;4949292;28;49816;-67
2022/12/12 16:28:28;;;;;;;;;50.00;36.00;;;;;0.64;91.04;100740.28;4949566;28;49842;-67
2022/12/12 16:31:02;;;;;;;;;38.75;26.75;;;;;0.09;91.38;100659.50;4958175;28;49791;-68
2022/12/12 16:33:32;;;;;;;;;28.50;24.50;;;;;0.54;91.65;100742.31;4948978;28;50560;-66
2022/12/12 16:36:00;;;;;;;;;38.00;30.00;;;;;0.49;92.08;100751.50;4949461;28;49837;-65
2022/12/12 16:38:27;;;;;;;;;30.75;26.00;;;;;0.50;92.24;100737.78;4949344;28;49846;-66
2022/12/12 16:40:54;;;;;;;;;36.75;34.75;;;;;0.37;92.21;100724.91;4948909;28;50104;-66
2022/12/12 16:43:21;;;;;;;;;40.75;34.50;;;;;0.34;93.38;100736.75;4948641;28;49830;-66
2022/12/12 16:45:52;;;;;;;;;36.25;27.75;;;;;0.35;93.36;100738.53;4950052;28;49982;-68
2022/12/12 16:48:26;;;;;;;;;48.75;37.00;;;;;0.36;93.76;100737.72;4950080;28;49926;-68
2022/12/12 16:50:55;;;;;;;;;40.00;35.00;;;;;0.36;94.28;100737.72;4950787;28;49781;-68
2022/12/12 16:53:21;;;;;;;;;49.67;42.67;;;;;0.28;94.50;100743.31;4949017;28;51120;-67
2022/12/12 16:55:49;;;;;;;;;49.25;40.75;;;;;0.04;95.47;100704.78;4953682;28;49868;-74
2022/12/12 16:58:15;;;;;;;;;47.00;42.33;;;;;0.05;96.34;100715.19;4952376;28;49835;-68
2022/12/12 17:00:41;;;;;;;;;35.75;29.50;;;;;0.13;95.73;100732.06;4954101;28;49873;-65
2022/12/12 17:03:06;;;;;;;;;50.67;41.00;;;;;0.18;95.80;100732.31;4948886;28;49749;-64
2022/12/12 17:05:34;;;;;;;;;52.25;36.50;;;;;0.11;96.15;100731.06;4955712;28;49702;-67
2022/12/12 17:07:59;;;;;;;;;36.00;34.33;;;;;0.07;96.03;100716.19;4959592;28;50023;-68
2022/12/12 17:10:25;;;;;;;;;37.25;29.25;;;;;0.05;96.86;100720.38;4956622;28;49675;-65
2022/12/12 17:12:51;;;;;;;;;38.50;29.50;;;;;0.03;96.89;100703.00;4961142;28;50364;-65
2022/12/12 17:15:21;;;;;;;;;39.50;32.50;;;;;0.01;96.77;100712.34;4951561;28;49611;-68
2022/12/12 17:17:47;;;;;;;;;33.00;30.00;;;;;0.09;96.33;100718.84;4952818;28;49706;-68
2022/12/12 17:20:12;;;;;;;;;40.25;32.25;;;;;0.06;96.63;100713.50;4953658;28;49744;-65
2022/12/12 17:22:39;;;;;;;;;37.25;33.75;;;;;0.02;96.90;100719.28;4952639;28;50379;-70
2022/12/12 17:25:05;;;;;;;;;45.00;39.50;;;;;-0.23;96.99;100680.75;4953025;28;49833;-65
2022/12/12 17:27:31;;;;;;;;;30.00;27.50;;;;;-0.06;97.59;100719.69;4954494;28;49940;-68
2022/12/12 17:29:56;;;;;;;;;42.67;37.67;;;;;-0.02;98.05;100721.66;4955288;28;49807;-62
2022/12/12 17:32:21;;;;;;;;;39.00;35.33;;;;;-0.08;98.05;100704.94;4954665;28;50132;-64
2022/12/12 17:34:47;;;;;;;;;40.33;37.00;;;;;-0.01;98.07;100714.81;4955374;28;49793;-63
2022/12/12 17:37:12;;;;;;;;;43.33;31.67;;;;;-0.03;98.86;100712.13;4952538;28;49853;-72
2022/12/12 17:39:37;;;;;;;;;54.33;46.67;;;;;-0.03;99.43;100706.09;4956082;28;49692;-72
2022/12/12 17:42:03;;;;;;;;;42.00;37.00;;;;;0.01;99.35;100704.63;4951857;28;50657;-67
2022/12/12 17:44:28;;;;;;;;;43.00;32.75;;;;;-0.42;99.71;100640.00;4957849;28;49927;-65
2022/12/12 17:46:54;;;;;;;;;45.67;36.67;;;;;0.01;100.00;100704.63;4952896;28;49724;-68
2022/12/12 17:49:19;;;;;;;;;37.00;33.33;;;;;0.01;99.44;100695.19;4951833;28;50187;-65
2022/12/12 17:51:44;;;;;;;;;43.67;39.33;;;;;0.08;99.42;100701.59;4952058;28;50560;-64
2022/12/12 17:54:10;;;;;;;;;32.67;32.67;;;;;-0.22;100.00;100665.34;4952544;28;49871;-61
2022/12/12 17:56:35;;;;;;;;;39.67;34.00;;;;;0.02;100.00;100703.81;4954022;28;49814;-66
2022/12/12 17:59:04;;;;;;;;;45.67;42.33;;;;;0.05;100.00;100698.81;4953139;28;49505;-63
2022/12/12 18:01:30;;;;;;;;;41.67;38.33;;;;;-0.01;100.00;100689.91;4952386;28;49839;-66